Dades meteomassalio
Diari Summary for Juliol 31, 2017 Units:  English    Metric   Both
« Previous Day
Next Day »
Diari Semanal Mensual Anual Personalitzat
  Maxima: Minima: Mijana:
Temperatura: TemperatureF °F 65.5 °F 82.5 °F
Rosada: DewpointF °F 53.7 °F 61.9 °F
Humitat: Humidity % 24 % 53 %
Velocitat del vent: WindSpeedMPH mph 0.0 mph 6.1 mph
Racha vent: WindSpeedGustMPH mph - -
Vent:- - SE
Pressio: PressureIn in 29.66 in -
Pluja: 0.00 in    
Historical Graphs
 
 
Tabular Data for Juliol 31, 2017
Time Temperature Dew Point Pressure Wind Wind Speed Wind Gust Humidity Rainfall Rate (Hourly) solar Conditions
TemperatureF °F DewpointF °F PressureIn in Calm     Humidity % HourlyPrecipIn in SolarRadiationWatts/m^2 W/m2 Conditions
00:03 79.2 °F 65.5 °F 29.77 in Calm     63 % 0.00 in 0.0 W/m2 CLR
00:09 79.0 °F 66.2 °F 29.77 in Calm     65 % 0.00 in 0.0 W/m2 CLR
00:14 78.8 °F 66.0 °F 29.78 in Calm     65 % 0.00 in 0.0 W/m2 CLR
00:19 78.7 °F 65.9 °F 29.77 in Calm     65 % 0.00 in 0.0 W/m2 CLR
00:24 78.6 °F 66.3 °F 29.77 in Calm     66 % 0.00 in 0.0 W/m2 CLR
00:29 78.4 °F 66.1 °F 29.77 in Calm     66 % 0.00 in 0.0 W/m2 CLR
00:34 78.3 °F 66.0 °F 29.77 in Calm     66 % 0.00 in 0.0 W/m2 CLR
00:39 78.3 °F 65.6 °F 29.77 in Calm     65 % 0.00 in 0.0 W/m2 CLR
00:44 78.3 °F 66.0 °F 29.77 in Calm     66 % 0.00 in 0.0 W/m2 CLR
00:49 78.3 °F 66.0 °F 29.77 in Calm     66 % 0.00 in 0.0 W/m2 CLR
00:54 78.4 °F 65.7 °F 29.77 in Calm     65 % 0.00 in 0.0 W/m2 CLR
00:59 78.4 °F 65.7 °F 29.77 in Calm     65 % 0.00 in 0.0 W/m2 CLR
01:04 78.4 °F 66.1 °F 29.77 in Calm     66 % 0.00 in 0.0 W/m2 CLR
01:09 78.3 °F 66.4 °F 29.77 in ENE 3.5 mph 3.5 mph 67 % 0.00 in 0.0 W/m2 CLR
01:14 78.2 °F 66.3 °F 29.77 in ENE 2.3 mph   67 % 0.00 in 0.0 W/m2 CLR
01:19 78.2 °F 66.3 °F 29.77 in Calm     67 % 0.00 in 0.0 W/m2 CLR
01:24 78.0 °F 66.2 °F 29.78 in North 5.0 mph 5.0 mph 67 % 0.00 in 0.0 W/m2 CLR
01:29 78.0 °F 66.2 °F 29.79 in NNW 10.4 mph 10.4 mph 67 % 0.00 in 0.0 W/m2 CLR
01:34 78.1 °F 65.4 °F 29.79 in Calm     65 % 0.00 in 0.0 W/m2 CLR
01:35 78.1 °F 65.4 °F 29.79 in Calm     65 % 0.00 in 0.0 W/m2 CLR
01:39 78.4 °F 66.5 °F 29.79 in NNE 5.0 mph 5.0 mph 67 % 0.00 in 0.0 W/m2 CLR
01:44 78.0 °F 67.0 °F 29.80 in NNW 7.0 mph 7.0 mph 69 % 0.00 in 0.0 W/m2 CLR
01:49 77.7 °F 66.7 °F 29.79 in ENE 2.3 mph   69 % 0.00 in 0.0 W/m2 CLR
01:54 77.6 °F 67.0 °F 29.79 in Calm     70 % 0.00 in 0.0 W/m2 CLR
01:59 77.4 °F 67.3 °F 29.79 in Calm     71 % 0.00 in 0.0 W/m2 CLR
02:04 77.0 °F 67.7 °F 29.79 in NNE 3.5 mph 3.5 mph 73 % 0.00 in 0.0 W/m2 CLR
02:09 76.7 °F 67.8 °F 29.79 in North 2.0 mph 2.0 mph 74 % 0.00 in 0.0 W/m2 CLR
02:14 76.4 °F 67.9 °F 29.80 in NW 4.0 mph 4.0 mph 75 % 0.00 in 0.0 W/m2 CLR
02:19 76.3 °F 67.4 °F 29.80 in Calm     74 % 0.00 in 0.0 W/m2 CLR
02:24 76.3 °F 67.4 °F 29.80 in Calm     74 % 0.00 in 0.0 W/m2 CLR
02:29 76.3 °F 67.4 °F 29.80 in Calm     74 % 0.00 in 0.0 W/m2 CLR
02:34 76.4 °F 67.5 °F 29.80 in Calm     74 % 0.00 in 0.0 W/m2 CLR
02:39 76.3 °F 67.0 °F 29.81 in WNW 5.8 mph 5.8 mph 73 % 0.00 in 0.0 W/m2 CLR
02:44 76.5 °F 67.6 °F 29.81 in WNW 4.6 mph 4.6 mph 74 % 0.00 in 0.0 W/m2 CLR
02:49 76.7 °F 68.2 °F 29.81 in WNW 10.4 mph 10.4 mph 75 % 0.00 in 0.0 W/m2 CLR
02:54 76.7 °F 68.2 °F 29.81 in Calm     75 % 0.00 in 0.0 W/m2 CLR
02:59 76.6 °F 68.5 °F 29.81 in Calm     76 % 0.00 in 0.0 W/m2 CLR
03:04 76.5 °F 68.7 °F 29.81 in Calm     77 % 0.00 in 0.0 W/m2 CLR
03:09 76.3 °F 68.6 °F 29.81 in Calm     77 % 0.00 in 0.0 W/m2 CLR
03:14 76.1 °F 68.7 °F 29.81 in Calm     78 % 0.00 in 0.0 W/m2 CLR
03:19 75.9 °F 68.2 °F 29.81 in WNW 6.9 mph 6.9 mph 77 % 0.00 in 0.0 W/m2 CLR
03:24 75.8 °F 67.7 °F 29.81 in West 4.6 mph 4.6 mph 76 % 0.00 in 0.0 W/m2 CLR
03:29 75.6 °F 66.7 °F 29.81 in WSW 3.5 mph 3.5 mph 74 % 0.00 in 0.0 W/m2 CLR
03:34 75.4 °F 65.7 °F 29.81 in WNW 4.0 mph 4.0 mph 72 % 0.00 in 0.0 W/m2 CLR
03:39 75.2 °F 65.6 °F 29.81 in Calm     72 % 0.00 in 0.0 W/m2 CLR
03:44 75.0 °F 64.5 °F 29.81 in WNW 4.6 mph 4.6 mph 70 % 0.00 in 0.0 W/m2 CLR
03:49 74.8 °F 63.9 °F 29.81 in Calm     69 % 0.00 in 0.0 W/m2 CLR
03:54 74.6 °F 63.8 °F 29.81 in Calm     69 % 0.00 in 0.0 W/m2 CLR
03:59 74.4 °F 63.6 °F 29.82 in Calm     69 % 0.00 in 0.0 W/m2 CLR
04:00 74.3 °F 63.5 °F 29.82 in Calm     69 % 0.00 in 0.0 W/m2 CLR
04:05 74.2 °F 63.0 °F 29.82 in Calm     68 % 0.00 in 0.0 W/m2 CLR
04:10 74.0 °F 62.8 °F 29.82 in Calm     68 % 0.00 in 0.0 W/m2 CLR
04:16 73.9 °F 62.2 °F 29.82 in Calm     67 % 0.00 in 0.0 W/m2 CLR
04:21 73.8 °F 62.2 °F 29.82 in Calm     67 % 0.00 in 0.0 W/m2 CLR
04:25 73.6 °F 62.0 °F 29.82 in Calm     67 % 0.00 in 0.0 W/m2 CLR
04:31 73.3 °F 62.1 °F 29.82 in Calm     68 % 0.00 in 0.0 W/m2 CLR
04:36 73.1 °F 62.3 °F 29.82 in Calm     69 % 0.00 in 0.0 W/m2 CLR
04:41 72.9 °F 62.1 °F 29.82 in Calm     69 % 0.00 in 0.0 W/m2 CLR
04:46 72.7 °F 61.9 °F 29.82 in Calm     69 % 0.00 in 0.0 W/m2 CLR
04:51 72.4 °F 62.1 °F 29.82 in Calm     70 % 0.00 in 0.0 W/m2 CLR
04:56 72.2 °F 62.3 °F 29.82 in Calm     71 % 0.00 in 0.0 W/m2 CLR
05:01 71.8 °F 61.9 °F 29.82 in Calm     71 % 0.00 in 0.0 W/m2 CLR
05:06 71.5 °F 61.6 °F 29.82 in Calm     71 % 0.00 in 0.0 W/m2 CLR
05:11 71.2 °F 61.3 °F 29.82 in Calm     71 % 0.00 in 0.0 W/m2 CLR
05:16 71.0 °F 61.5 °F 29.82 in Calm     72 % 0.00 in 0.0 W/m2 CLR
05:21 70.7 °F 61.6 °F 29.82 in Calm     73 % 0.00 in 0.0 W/m2 CLR
05:26 70.5 °F 61.4 °F 29.82 in Calm     73 % 0.00 in 0.0 W/m2 CLR
05:31 70.3 °F 61.2 °F 29.82 in Calm     73 % 0.00 in 0.0 W/m2 CLR
05:36 70.0 °F 61.3 °F 29.82 in Calm     74 % 0.00 in 0.0 W/m2 CLR
05:41 69.8 °F 61.1 °F 29.82 in Calm     74 % 0.00 in 0.0 W/m2 CLR
05:46 69.5 °F 60.8 °F 29.82 in Calm     74 % 0.00 in 0.0 W/m2 CLR
05:51 69.1 °F 60.8 °F 29.82 in Calm     75 % 0.00 in 0.0 W/m2 CLR
05:56 68.9 °F 60.6 °F 29.82 in Calm     75 % 0.00 in 0.0 W/m2 CLR
06:01 68.6 °F 60.7 °F 29.82 in Calm     76 % 0.00 in 0.0 W/m2 CLR
06:06 68.2 °F 60.3 °F 29.82 in Calm     76 % 0.00 in 0.0 W/m2 CLR
06:11 68.0 °F 60.2 °F 29.82 in Calm     76 % 0.00 in 0.0 W/m2 CLR
06:16 67.8 °F 60.3 °F 29.82 in Calm     77 % 0.00 in 0.0 W/m2 CLR
06:21 67.6 °F 60.1 °F 29.82 in Calm     77 % 0.00 in 0.0 W/m2 CLR
06:26 67.5 °F 60.0 °F 29.82 in Calm     77 % 0.00 in 0.0 W/m2 CLR
06:31 67.3 °F 59.8 °F 29.82 in Calm     77 % 0.00 in 0.0 W/m2 CLR
06:36 67.1 °F 60.0 °F 29.82 in Calm     78 % 0.00 in 0.0 W/m2 CLR
06:41 66.9 °F 59.8 °F 29.82 in Calm     78 % 0.00 in 0.0 W/m2 CLR
06:46 66.7 °F 59.6 °F 29.82 in Calm     78 % 0.00 in 0.0 W/m2 OVC
06:51 66.4 °F 59.3 °F 29.82 in Calm     78 % 0.00 in 0.0 W/m2 OVC
06:56 66.1 °F 59.4 °F 29.82 in Calm     79 % 0.00 in 0.0 W/m2 OVC
06:57 66.1 °F 59.4 °F 29.83 in Calm     79 % 0.00 in 0.0 W/m2 OVC
07:02 65.8 °F 59.1 °F 29.83 in Calm     79 % 0.00 in 7.0 W/m2 BKN
07:07 65.7 °F 59.4 °F 29.83 in Calm     80 % 0.00 in 11.0 W/m2 BKN
07:12 65.6 °F 59.3 °F 29.83 in Calm     80 % 0.00 in 14.0 W/m2 BKN
07:17 65.5 °F 59.5 °F 29.83 in Calm     81 % 0.00 in 18.0 W/m2 BKN
07:22 65.5 °F 59.2 °F 29.83 in Calm     80 % 0.00 in 23.0 W/m2 BKN
07:27 65.5 °F 59.2 °F 29.83 in Calm     80 % 0.00 in 26.0 W/m2 BKN
07:32 65.5 °F 59.2 °F 29.83 in Calm     80 % 0.00 in 33.0 W/m2 BKN
07:37 65.7 °F 59.4 °F 29.83 in Calm     80 % 0.00 in 35.0 W/m2 BKN
07:42 65.8 °F 59.5 °F 29.83 in Calm     80 % 0.00 in 47.0 W/m2 SCT
07:47 65.9 °F 59.6 °F 29.83 in Calm     80 % 0.00 in 58.0 W/m2 SCT
07:52 66.1 °F 59.7 °F 29.83 in Calm     80 % 0.00 in 72.0 W/m2 FEW
07:57 66.2 °F 59.5 °F 29.83 in Calm     79 % 0.00 in 83.0 W/m2 FEW
08:02 66.6 °F 60.2 °F 29.83 in Calm     80 % 0.00 in 95.0 W/m2 FEW
08:07 67.0 °F 59.9 °F 29.83 in Calm     78 % 0.00 in 111.0 W/m2 CLR
08:12 67.5 °F 60.0 °F 29.83 in Calm     77 % 0.00 in 127.0 W/m2 CLR
08:17 67.9 °F 60.4 °F 29.83 in Calm     77 % 0.00 in 144.0 W/m2 CLR
08:22 68.4 °F 61.3 °F 29.83 in Calm     78 % 0.00 in 134.0 W/m2 CLR
08:27 68.9 °F 61.4 °F 29.83 in Calm     77 % 0.00 in 174.0 W/m2 CLR
08:32 69.6 °F 61.7 °F 29.83 in Calm     76 % 0.00 in 193.0 W/m2 CLR
08:37 70.1 °F 61.8 °F 29.83 in Calm     75 % 0.00 in 211.0 W/m2 CLR
08:42 70.4 °F 61.7 °F 29.83 in Calm     74 % 0.00 in 223.0 W/m2 CLR
08:47 70.8 °F 61.3 °F 29.83 in Calm     72 % 0.00 in 211.0 W/m2 CLR
08:52 71.2 °F 61.7 °F 29.83 in Calm     72 % 0.00 in 251.0 W/m2 CLR
08:57 71.7 °F 61.8 °F 29.83 in Calm     71 % 0.00 in 264.0 W/m2 CLR
09:02 72.4 °F 62.1 °F 29.83 in Calm     70 % 0.00 in 281.0 W/m2 CLR
09:07 73.1 °F 62.3 °F 29.83 in Calm     69 % 0.00 in 299.0 W/m2 CLR
09:12 73.6 °F 62.4 °F 29.83 in Calm     68 % 0.00 in 315.0 W/m2 CLR
09:17 73.9 °F 62.2 °F 29.83 in Calm     67 % 0.00 in 330.0 W/m2 CLR
09:22 74.0 °F 62.3 °F 29.83 in Calm     67 % 0.00 in 343.0 W/m2 CLR
09:27 74.5 °F 62.4 °F 29.83 in Calm     66 % 0.00 in 359.0 W/m2 CLR
09:32 75.1 °F 62.5 °F 29.83 in Calm     65 % 0.00 in 374.0 W/m2 CLR
09:37 75.6 °F 62.6 °F 29.83 in Calm     64 % 0.00 in 387.0 W/m2 CLR
09:42 75.9 °F 62.4 °F 29.83 in Calm     63 % 0.00 in 408.0 W/m2 CLR
09:47 75.8 °F 62.3 °F 29.83 in Calm     63 % 0.00 in 272.0 W/m2 CLR
09:52 75.8 °F 62.3 °F 29.83 in Calm     63 % 0.00 in 165.0 W/m2 CLR
09:57 76.1 °F 62.6 °F 29.83 in Calm     63 % 0.00 in 454.0 W/m2 CLR
10:02 76.1 °F 62.6 °F 29.83 in ENE 4.6 mph 4.6 mph 63 % 0.00 in 471.0 W/m2 CLR
10:07 76.3 °F 62.8 °F 29.82 in ENE 2.3 mph 2.3 mph 63 % 0.00 in 483.0 W/m2 CLR
10:12 76.6 °F 63.1 °F 29.82 in Calm   0.2 mph 63 % 0.00 in 497.0 W/m2 CLR
10:17 77.1 °F 63.1 °F 29.82 in NE 3.5 mph 3.5 mph 62 % 0.00 in 513.0 W/m2 CLR
10:22 77.1 °F 62.6 °F 29.82 in NE 3.5 mph 3.5 mph 61 % 0.00 in 526.0 W/m2 CLR
10:27 77.1 °F 62.6 °F 29.82 in ENE 3.5 mph   61 % 0.00 in 548.0 W/m2 CLR
10:32 77.2 °F 63.2 °F 29.82 in Calm     62 % 0.00 in 563.0 W/m2 CLR
10:37 77.6 °F 63.5 °F 29.82 in ENE 4.0 mph 4.0 mph 62 % 0.00 in 578.0 W/m2 CLR
10:42 78.5 °F 63.9 °F 29.82 in NE 3.5 mph 3.5 mph 61 % 0.00 in 592.0 W/m2 CLR
10:47 79.0 °F 64.4 °F 29.82 in Calm     61 % 0.00 in 606.0 W/m2 CLR
10:52 79.0 °F 63.4 °F 29.82 in Calm     59 % 0.00 in 621.0 W/m2 CLR
10:54 79.2 °F 64.1 °F 29.82 in Calm     60 % 0.00 in 624.0 W/m2 CLR
10:59 79.6 °F 64.0 °F 29.82 in Calm     59 % 0.00 in 640.0 W/m2 CLR
11:04 79.8 °F 64.2 °F 29.82 in ENE 5.8 mph 5.8 mph 59 % 0.00 in 652.0 W/m2 CLR
11:09 79.9 °F 64.3 °F 29.81 in ENE 6.0 mph 6.0 mph 59 % 0.00 in 661.0 W/m2 CLR
11:14 80.1 °F 64.5 °F 29.81 in Calm     59 % 0.00 in 673.0 W/m2 CLR
11:19 80.4 °F 64.8 °F 29.81 in NE 5.0 mph 5.0 mph 59 % 0.00 in 680.0 W/m2 CLR
11:24 81.0 °F 65.3 °F 29.81 in NE 5.0 mph 5.0 mph 59 % 0.00 in 698.0 W/m2 CLR
11:29 81.1 °F 64.9 °F 29.81 in Calm     58 % 0.00 in 708.0 W/m2 CLR
11:34 81.5 °F 65.3 °F 29.81 in NE 4.6 mph 4.6 mph 58 % 0.00 in 719.0 W/m2 CLR
11:39 81.9 °F 65.7 °F 29.81 in Calm     58 % 0.00 in 729.0 W/m2 CLR
11:44 82.4 °F 65.6 °F 29.81 in Calm     57 % 0.00 in 742.0 W/m2 CLR
11:49 82.6 °F 65.8 °F 29.80 in NE 6.0 mph 6.0 mph 57 % 0.00 in 751.0 W/m2 CLR
11:54 82.6 °F 65.8 °F 29.80 in ENE 6.9 mph 6.9 mph 57 % 0.00 in 761.0 W/m2 CLR
11:59 82.6 °F 65.8 °F 29.80 in East 3.5 mph 3.5 mph 57 % 0.00 in 770.0 W/m2 CLR
12:04 82.6 °F 66.3 °F 29.80 in ENE 9.2 mph 9.2 mph 58 % 0.00 in 779.0 W/m2 CLR
12:09 82.7 °F 66.4 °F 29.80 in East 1.2 mph   58 % 0.00 in 789.0 W/m2 CLR
12:14 82.7 °F 66.4 °F 29.80 in ENE 6.9 mph 6.9 mph 58 % 0.00 in 793.0 W/m2 CLR
12:19 83.2 °F 66.9 °F 29.80 in NE 5.8 mph 5.8 mph 58 % 0.00 in 802.0 W/m2 CLR
12:24 83.9 °F 66.5 °F 29.79 in NE 8.1 mph 8.1 mph 56 % 0.00 in 812.0 W/m2 CLR
12:29 84.2 °F 66.8 °F 29.79 in NE 4.0 mph 4.0 mph 56 % 0.00 in 817.0 W/m2 CLR
12:34 84.7 °F 67.3 °F 29.79 in NNE 4.6 mph 4.6 mph 56 % 0.00 in 826.0 W/m2 CLR
12:39 85.4 °F 67.4 °F 29.78 in NNE 9.2 mph 9.2 mph 55 % 0.00 in 831.0 W/m2 CLR
12:44 85.7 °F 67.7 °F 29.78 in ENE 6.9 mph 6.9 mph 55 % 0.00 in 840.0 W/m2 CLR
12:45 85.8 °F 67.8 °F 29.78 in NE 6.9 mph 6.9 mph 55 % 0.00 in 840.0 W/m2 CLR
12:50 86.4 °F 67.8 °F 29.78 in NE 6.9 mph 6.9 mph 54 % 0.00 in 846.0 W/m2 CLR
12:55 87.0 °F 68.3 °F 29.77 in NE 6.0 mph 6.0 mph 54 % 0.00 in 858.0 W/m2 CLR
13:00 87.7 °F 69.0 °F 29.77 in NE 9.0 mph 9.0 mph 54 % 0.00 in 863.0 W/m2 CLR
13:05 88.3 °F 69.0 °F 29.77 in ENE 3.5 mph   53 % 0.00 in 863.0 W/m2 CLR
13:10 88.5 °F 69.2 °F 29.77 in NNE 8.0 mph 8.0 mph 53 % 0.00 in 868.0 W/m2 CLR
13:15 88.8 °F 68.9 °F 29.76 in NE 8.0 mph 8.0 mph 52 % 0.00 in 870.0 W/m2 CLR
13:20 89.0 °F 69.1 °F 29.76 in ENE 6.9 mph 6.9 mph 52 % 0.00 in 877.0 W/m2 CLR
13:25 89.5 °F 69.5 °F 29.76 in NE 7.0 mph 7.0 mph 52 % 0.00 in 886.0 W/m2 CLR
13:30 90.1 °F 69.5 °F 29.76 in NE 8.1 mph 8.1 mph 51 % 0.00 in 882.0 W/m2 CLR
13:35 90.2 °F 69.6 °F 29.75 in East 6.0 mph 6.0 mph 51 % 0.00 in 886.0 W/m2 CLR
13:40 90.5 °F 69.3 °F 29.75 in NE 10.4 mph 10.4 mph 50 % 0.00 in 888.0 W/m2 CLR
13:41 90.7 °F 70.1 °F 29.75 in ENE 8.1 mph 8.1 mph 51 % 0.00 in 889.0 W/m2 CLR
13:46 91.4 °F 69.6 °F 29.75 in ENE 3.5 mph 3.5 mph 49 % 0.00 in 888.0 W/m2 CLR
13:51 91.5 °F 69.6 °F 29.75 in ENE 11.5 mph 11.5 mph 49 % 0.00 in 891.0 W/m2 CLR
13:56 92.3 °F 69.8 °F 29.74 in East 8.1 mph 8.1 mph 48 % 0.00 in 896.0 W/m2 CLR
14:01 92.7 °F 68.9 °F 29.74 in ESE 8.1 mph 8.1 mph 46 % 0.00 in 896.0 W/m2 CLR
14:06 92.5 °F 68.7 °F 29.74 in ESE 6.9 mph 6.9 mph 46 % 0.00 in 896.0 W/m2 CLR
14:11 93.0 °F 68.5 °F 29.74 in ENE 8.1 mph 8.1 mph 45 % 0.00 in 893.0 W/m2 CLR
14:16 93.4 °F 67.6 °F 29.74 in East 10.4 mph 10.4 mph 43 % 0.00 in 898.0 W/m2 CLR
14:21 94.1 °F 67.5 °F 29.73 in East 9.2 mph 9.2 mph 42 % 0.00 in 905.0 W/m2 CLR
14:26 94.7 °F 67.3 °F 29.73 in East 10.4 mph 10.4 mph 41 % 0.00 in 833.0 W/m2 CLR
14:31 95.3 °F 67.2 °F 29.73 in East 11.5 mph 11.5 mph 40 % 0.00 in 842.0 W/m2 CLR
14:36 95.8 °F 68.3 °F 29.73 in ESE 10.4 mph 10.4 mph 41 % 0.00 in 821.0 W/m2 CLR
14:41 96.3 °F 67.3 °F 29.72 in ESE 12.0 mph 12.0 mph 39 % 0.00 in 868.0 W/m2 CLR
14:46 96.1 °F 67.1 °F 29.72 in East 12.7 mph 12.7 mph 39 % 0.00 in 891.0 W/m2 CLR
14:51 95.9 °F 66.2 °F 29.72 in SE 15.0 mph 15.0 mph 38 % 0.00 in 889.0 W/m2 CLR
14:56 96.5 °F 57.1 °F 29.72 in SSE 6.9 mph 6.9 mph 27 % 0.00 in 891.0 W/m2 CLR
15:01 98.3 °F 57.5 °F 29.72 in South 8.1 mph 8.1 mph 26 % 0.00 in 884.0 W/m2 CLR
15:06 99.3 °F 56.1 °F 29.72 in SW 17.3 mph 17.3 mph 24 % 0.00 in 875.0 W/m2 CLR
15:11 99.5 °F 57.4 °F 29.71 in South 13.8 mph 13.8 mph 25 % 0.00 in 865.0 W/m2 CLR
15:16 99.6 °F 57.5 °F 29.71 in South 15.0 mph 15.0 mph 25 % 0.00 in 868.0 W/m2 CLR
15:21 99.7 °F 57.6 °F 29.72 in SE 17.3 mph 17.3 mph 25 % 0.00 in 798.0 W/m2 CLR
15:26 96.9 °F 64.7 °F 29.71 in SE 26.5 mph 26.5 mph 35 % 0.00 in 724.0 W/m2 CLR
15:31 96.2 °F 64.9 °F 29.71 in SSE 15.0 mph 15.0 mph 36 % 0.00 in 661.0 W/m2 CLR
15:36 96.3 °F 63.4 °F 29.71 in SE 19.6 mph 19.6 mph 34 % 0.00 in 816.0 W/m2 CLR
15:41 96.2 °F 64.1 °F 29.71 in SE 24.2 mph 24.2 mph 35 % 0.00 in 788.0 W/m2 CLR
15:46 96.0 °F 63.1 °F 29.71 in East 20.0 mph 20.0 mph 34 % 0.00 in 830.0 W/m2 CLR
15:51 96.0 °F 63.9 °F 29.71 in ESE 19.6 mph 19.6 mph 35 % 0.00 in 805.0 W/m2 CLR
15:56 95.3 °F 65.7 °F 29.71 in East 15.0 mph 15.0 mph 38 % 0.00 in 809.0 W/m2 CLR
16:01 95.7 °F 64.5 °F 29.70 in ESE 15.0 mph 15.0 mph 36 % 0.00 in 798.0 W/m2 CLR
16:06 96.1 °F 63.2 °F 29.70 in ESE 19.6 mph 19.6 mph 34 % 0.00 in 807.0 W/m2 CLR
16:11 96.1 °F 63.2 °F 29.69 in ESE 16.1 mph 16.1 mph 34 % 0.00 in 814.0 W/m2 CLR
16:16 95.9 °F 64.7 °F 29.69 in SE 19.6 mph 19.6 mph 36 % 0.00 in 798.0 W/m2 CLR
16:21 96.4 °F 62.6 °F 29.69 in SE 25.3 mph 25.3 mph 33 % 0.00 in 721.0 W/m2 CLR
16:26 95.9 °F 63.8 °F 29.69 in SE 18.4 mph 18.4 mph 35 % 0.00 in 784.0 W/m2 CLR
16:31 95.8 °F 61.2 °F 29.69 in SE 23.0 mph 23.0 mph 32 % 0.00 in 791.0 W/m2 CLR
16:36 97.2 °F 58.7 °F 29.69 in SE 17.3 mph 17.3 mph 28 % 0.00 in 772.0 W/m2 CLR
16:41 98.0 °F 58.3 °F 29.69 in SE 17.0 mph 17.0 mph 27 % 0.00 in 726.0 W/m2 CLR
16:46 98.4 °F 59.7 °F 29.69 in ESE 16.1 mph 16.1 mph 28 % 0.00 in 717.0 W/m2 CLR
16:51 98.6 °F 56.7 °F 29.69 in ESE 16.1 mph 16.1 mph 25 % 0.00 in 714.0 W/m2 CLR
16:56 98.3 °F 58.6 °F 29.69 in SE 16.1 mph 16.1 mph 27 % 0.00 in 698.0 W/m2 CLR
17:01 97.4 °F 57.8 °F 29.69 in SSE 20.7 mph 20.7 mph 27 % 0.00 in 687.0 W/m2 CLR
17:06 97.1 °F 59.6 °F 29.69 in SSE 19.0 mph 19.0 mph 29 % 0.00 in 666.0 W/m2 CLR
17:11 96.7 °F 61.1 °F 29.68 in ESE 18.4 mph 18.4 mph 31 % 0.00 in 652.0 W/m2 CLR
17:16 96.2 °F 60.7 °F 29.68 in ESE 15.0 mph 15.0 mph 31 % 0.00 in 636.0 W/m2 CLR
17:21 96.4 °F 59.9 °F 29.68 in SE 11.5 mph 11.5 mph 30 % 0.00 in 621.0 W/m2 CLR
17:27 96.4 °F 59.9 °F 29.68 in ESE 13.0 mph 13.0 mph 30 % 0.00 in 608.0 W/m2 CLR
17:32 96.6 °F 61.9 °F 29.68 in ESE 17.0 mph 17.0 mph 32 % 0.00 in 591.0 W/m2 CLR
17:37 96.3 °F 61.6 °F 29.67 in ESE 8.1 mph 8.1 mph 32 % 0.00 in 577.0 W/m2 CLR
17:42 96.2 °F 61.6 °F 29.68 in SSE 11.5 mph 11.5 mph 32 % 0.00 in 566.0 W/m2 CLR
17:47 96.1 °F 61.5 °F 29.67 in SE 11.5 mph 11.5 mph 32 % 0.00 in 552.0 W/m2 CLR
17:52 95.9 °F 60.4 °F 29.67 in ESE 10.4 mph 10.4 mph 31 % 0.00 in 541.0 W/m2 CLR
17:57 95.9 °F 61.3 °F 29.68 in SE 13.8 mph 13.8 mph 32 % 0.00 in 526.0 W/m2 CLR
18:02 95.7 °F 61.1 °F 29.67 in SE 10.4 mph 10.4 mph 32 % 0.00 in 513.0 W/m2 CLR
18:07 95.6 °F 61.0 °F 29.67 in SE 12.7 mph 12.7 mph 32 % 0.00 in 499.0 W/m2 CLR
18:12 95.6 °F 60.1 °F 29.67 in ESE 8.1 mph 8.1 mph 31 % 0.00 in 482.0 W/m2 CLR
18:17 95.9 °F 59.5 °F 29.67 in SE 16.1 mph 16.1 mph 30 % 0.00 in 466.0 W/m2 CLR
18:22 95.9 °F 59.5 °F 29.67 in SE 12.7 mph 12.7 mph 30 % 0.00 in 448.0 W/m2 CLR
18:27 95.9 °F 59.5 °F 29.67 in ESE 13.0 mph 13.0 mph 30 % 0.00 in 431.0 W/m2 CLR
18:32 95.8 °F 59.4 °F 29.67 in SE 11.0 mph 11.0 mph 30 % 0.00 in 415.0 W/m2 CLR
18:37 95.7 °F 60.2 °F 29.67 in ESE 13.8 mph 13.8 mph 31 % 0.00 in 397.0 W/m2 CLR
18:42 95.6 °F 61.0 °F 29.67 in SSE 11.5 mph 11.5 mph 32 % 0.00 in 385.0 W/m2 CLR
18:47 95.6 °F 61.0 °F 29.67 in SE 8.1 mph 8.1 mph 32 % 0.00 in 367.0 W/m2 CLR
18:52 95.2 °F 60.7 °F 29.66 in South 12.7 mph 12.7 mph 32 % 0.00 in 352.0 W/m2 CLR
18:57 95.4 °F 55.1 °F 29.66 in South 15.0 mph 15.0 mph 26 % 0.00 in 336.0 W/m2 CLR
19:02 95.6 °F 55.2 °F 29.66 in SSW 15.0 mph 15.0 mph 26 % 0.00 in 323.0 W/m2 CLR
19:07 95.4 °F 58.1 °F 29.66 in South 11.5 mph 11.5 mph 29 % 0.00 in 306.0 W/m2 CLR
19:12 95.0 °F 54.7 °F 29.66 in South 19.6 mph 19.6 mph 26 % 0.00 in 288.0 W/m2 CLR
19:17 95.2 °F 55.9 °F 29.66 in SSE 19.6 mph 19.6 mph 27 % 0.00 in 276.0 W/m2 CLR
19:22 95.2 °F 53.8 °F 29.66 in South 20.7 mph 20.7 mph 25 % 0.00 in 257.0 W/m2 CLR
19:27 95.0 °F 54.7 °F 29.66 in South 18.4 mph 18.4 mph 26 % 0.00 in 237.0 W/m2 CLR
19:32 94.8 °F 55.6 °F 29.66 in South 19.6 mph 19.6 mph 27 % 0.00 in 223.0 W/m2 CLR
19:37 94.6 °F 54.4 °F 29.66 in SSE 19.6 mph 19.6 mph 26 % 0.00 in 211.0 W/m2 CLR
19:42 94.4 °F 54.2 °F 29.66 in SSE 21.9 mph 21.9 mph 26 % 0.00 in 193.0 W/m2 CLR
19:47 94.2 °F 55.1 °F 29.66 in South 20.7 mph 20.7 mph 27 % 0.00 in 176.0 W/m2 CLR
19:52 94.1 °F 55.0 °F 29.66 in SSE 24.2 mph 24.2 mph 27 % 0.00 in 156.0 W/m2 CLR
19:58 93.9 °F 54.8 °F 29.66 in SE 13.8 mph 13.8 mph 27 % 0.00 in 141.0 W/m2 CLR
20:03 93.8 °F 54.8 °F 29.66 in South 15.0 mph 15.0 mph 27 % 0.00 in 123.0 W/m2 CLR
20:08 93.4 °F 55.4 °F 29.66 in South 21.9 mph 21.9 mph 28 % 0.00 in 107.0 W/m2 CLR
20:13 93.1 °F 55.2 °F 29.66 in SSE 19.0 mph 19.0 mph 28 % 0.00 in 90.0 W/m2 CLR
20:18 92.8 °F 54.9 °F 29.66 in South 21.9 mph 21.9 mph 28 % 0.00 in 74.0 W/m2 FEW
20:23 92.4 °F 55.5 °F 29.67 in SSW 18.4 mph 18.4 mph 29 % 0.00 in 35.0 W/m2 BKN
20:28 92.1 °F 55.3 °F 29.66 in SSE 15.0 mph 15.0 mph 29 % 0.00 in 28.0 W/m2 BKN
20:33 91.9 °F 55.1 °F 29.67 in South 18.4 mph 18.4 mph 29 % 0.00 in 25.0 W/m2 BKN
20:38 91.7 °F 54.9 °F 29.67 in SSE 19.6 mph 19.6 mph 29 % 0.00 in 23.0 W/m2 BKN
20:43 91.5 °F 54.8 °F 29.67 in SSE 19.6 mph 19.6 mph 29 % 0.00 in 21.0 W/m2 BKN
20:48 91.3 °F 54.6 °F 29.67 in South 17.3 mph 17.3 mph 29 % 0.00 in 21.0 W/m2 BKN
20:53 91.1 °F 54.4 °F 29.67 in South 20.7 mph 20.7 mph 29 % 0.00 in 19.0 W/m2 BKN
20:58 91.0 °F 54.3 °F 29.67 in South 19.6 mph 19.6 mph 29 % 0.00 in 16.0 W/m2 BKN
21:03 90.7 °F 55.0 °F 29.67 in South 10.4 mph 10.4 mph 30 % 0.00 in 12.0 W/m2 BKN
21:08 90.2 °F 55.5 °F 29.67 in SE 10.4 mph 10.4 mph 31 % 0.00 in 7.0 W/m2 BKN
21:13 89.8 °F 56.0 °F 29.67 in SSE 11.5 mph 11.5 mph 32 % 0.00 in 0.0 W/m2 OVC
21:18 89.5 °F 55.7 °F 29.67 in South 12.7 mph 12.7 mph 32 % 0.00 in 0.0 W/m2 OVC
21:23 89.2 °F 54.6 °F 29.68 in South 11.5 mph 11.5 mph 31 % 0.00 in 0.0 W/m2 OVC
21:28 89.0 °F 55.3 °F 29.68 in South 9.2 mph 9.2 mph 32 % 0.00 in 0.0 W/m2 CLR
21:33 88.9 °F 54.4 °F 29.68 in South 11.0 mph 11.0 mph 31 % 0.00 in 0.0 W/m2 CLR
21:38 88.7 °F 54.2 °F 29.68 in SSE 9.2 mph 9.2 mph 31 % 0.00 in 0.0 W/m2 CLR
21:43 88.5 °F 54.9 °F 29.69 in South 5.8 mph 5.8 mph 32 % 0.00 in 0.0 W/m2 CLR
21:48 88.2 °F 54.6 °F 29.69 in SE 5.8 mph 5.8 mph 32 % 0.00 in 0.0 W/m2 CLR
21:53 88.1 °F 53.7 °F 29.70 in SSE 4.6 mph 4.6 mph 31 % 0.00 in 0.0 W/m2 CLR
21:58 88.1 °F 53.7 °F 29.70 in Calm     31 % 0.00 in 0.0 W/m2 CLR
22:03 87.5 °F 58.0 °F 29.70 in Calm     37 % 0.00 in 0.0 W/m2 CLR
22:08 86.7 °F 57.3 °F 29.71 in Calm     37 % 0.00 in 0.0 W/m2 CLR
22:13 86.0 °F 56.7 °F 29.71 in Calm     37 % 0.00 in 0.0 W/m2 CLR
22:18 85.4 °F 56.9 °F 29.71 in ESE 2.3 mph 2.3 mph 38 % 0.00 in 0.0 W/m2 CLR
22:23 85.2 °F 56.7 °F 29.71 in SE 6.0 mph 6.0 mph 38 % 0.00 in 0.0 W/m2 CLR
22:28 84.9 °F 57.2 °F 29.71 in SE 5.8 mph 5.8 mph 39 % 0.00 in 0.0 W/m2 CLR
22:33 84.8 °F 57.1 °F 29.72 in SSE 1.2 mph 1.2 mph 39 % 0.00 in 0.0 W/m2 CLR
22:38 84.6 °F 57.6 °F 29.72 in SE 8.1 mph 8.1 mph 40 % 0.00 in 0.0 W/m2 CLR
22:43 84.4 °F 58.1 °F 29.72 in Calm     41 % 0.00 in 0.0 W/m2 CLR
22:48 84.2 °F 57.9 °F 29.72 in SSE 2.0 mph 2.0 mph 41 % 0.00 in 0.0 W/m2 CLR
22:53 84.1 °F 58.5 °F 29.72 in ESE 5.8 mph 5.8 mph 42 % 0.00 in 0.0 W/m2 CLR
22:58 83.9 °F 58.3 °F 29.73 in Calm     42 % 0.00 in 0.0 W/m2 CLR
23:03 83.7 °F 58.8 °F 29.73 in ESE 4.0 mph 4.0 mph 43 % 0.00 in 0.0 W/m2 CLR
23:08 83.6 °F 59.4 °F 29.73 in ESE 4.6 mph 4.6 mph 44 % 0.00 in 0.0 W/m2 CLR
23:13 83.5 °F 59.3 °F 29.73 in SE 5.0 mph 5.0 mph 44 % 0.00 in 0.0 W/m2 CLR
23:18 83.3 °F 59.1 °F 29.73 in East 2.3 mph   44 % 0.00 in 0.0 W/m2 CLR
23:23 83.1 °F 58.9 °F 29.74 in Calm     44 % 0.00 in 0.0 W/m2 CLR
23:28 83.0 °F 59.5 °F 29.74 in Calm     45 % 0.00 in 0.0 W/m2 CLR
23:33 82.8 °F 59.9 °F 29.74 in Calm     46 % 0.00 in 0.0 W/m2 CLR
23:34 82.7 °F 59.8 °F 29.74 in Calm     46 % 0.00 in 0.0 W/m2 CLR
23:39 82.2 °F 60.6 °F 29.74 in Calm     48 % 0.00 in 0.0 W/m2 CLR
23:44 81.8 °F 60.8 °F 29.74 in Calm     49 % 0.00 in 0.0 W/m2 CLR
23:49 81.5 °F 61.1 °F 29.74 in Calm     50 % 0.00 in 0.0 W/m2 CLR
23:54 81.2 °F 60.8 °F 29.74 in Calm     50 % 0.00 in 0.0 W/m2 CLR
23:59 80.8 °F 61.0 °F 29.74 in Calm     51 % 0.00 in 0.0 W/m2 CLR
Lo Temps de Massalio
Compliments of Weather Underground - 1.25 mb